Time;durP1;ratioP1;P1;durP2;ratioP2;P2;SDS_P1;SDS_P2;PMS_P1;PMS_P2;Temp;Humidity;BMP_temperature;BMP_pressure;BME280_temperature;BME280_humidity;BME280_pressure;Samples;Min_cycle;Max_cycle;Signal;HPM_P1;HPM_P2
2022/11/14 00:01:57;;;;;;;12.98;7.95;;;4.30;99.90;;;;;;4861126;29;20060;-91
2022/11/14 00:04:46;;;;;;;12.00;7.50;;;4.30;99.90;;;;;;4861137;29;20040;-92
2022/11/14 00:07:31;;;;;;;10.98;6.60;;;4.20;99.90;;;;;;4854980;29;20059;-91
2022/11/14 00:10:16;;;;;;;11.25;6.43;;;4.20;99.90;;;;;;4870546;29;20053;-92
2022/11/14 00:13:00;;;;;;;11.48;7.15;;;4.20;99.90;;;;;;4857665;29;20100;-91
2022/11/14 00:15:49;;;;;;;11.82;7.75;;;4.20;99.90;;;;;;4858961;29;20079;-91
2022/11/14 00:18:33;;;;;;;12.10;7.22;;;4.20;99.90;;;;;;4861088;29;20094;-92
2022/11/14 00:21:18;;;;;;;12.38;6.93;;;4.20;99.90;;;;;;4860467;29;20097;-92
2022/11/14 00:24:02;;;;;;;13.70;8.23;;;4.20;99.90;;;;;;4858073;29;20105;-91
2022/11/14 00:26:46;;;;;;;10.90;6.75;;;4.20;99.90;;;;;;4868445;29;20043;-92
2022/11/14 00:29:30;;;;;;;14.15;8.55;;;4.20;99.90;;;;;;4859622;29;20121;-91
2022/11/14 00:32:15;;;;;;;11.00;6.72;;;4.10;99.90;;;;;;4858459;29;20112;-91
2022/11/14 00:34:58;;;;;;;15.13;9.20;;;4.10;99.90;;;;;;4860378;29;20045;-92
2022/11/14 00:37:43;;;;;;;13.82;7.97;;;4.10;99.90;;;;;;4860536;29;20076;-91
2022/11/14 00:40:27;;;;;;;13.02;7.57;;;4.10;99.90;;;;;;4858708;29;20086;-92
2022/11/14 00:43:11;;;;;;;15.07;9.45;;;4.00;99.90;;;;;;4857878;29;20056;-92
2022/11/14 00:45:55;;;;;;;16.30;9.85;;;4.00;99.90;;;;;;4860107;29;20101;-91
2022/11/14 00:48:39;;;;;;;14.63;9.30;;;4.10;99.90;;;;;;4858801;29;20033;-91
2022/11/14 00:51:23;;;;;;;15.05;8.77;;;4.00;99.90;;;;;;4859934;29;20108;-91
2022/11/14 00:54:07;;;;;;;15.23;8.55;;;3.80;99.90;;;;;;4857403;29;20060;-91
2022/11/14 00:56:51;;;;;;;14.77;8.57;;;3.70;99.90;;;;;;4853045;29;20070;-91
2022/11/14 00:59:35;;;;;;;14.35;8.88;;;3.70;99.90;;;;;;4859079;29;20088;-91
2022/11/14 01:02:19;;;;;;;17.70;9.55;;;3.70;99.90;;;;;;4854465;29;20058;-91
2022/11/14 01:05:04;;;;;;;14.23;8.38;;;3.70;99.90;;;;;;4860029;29;20125;-91
2022/11/14 01:07:48;;;;;;;14.25;8.18;;;3.70;99.90;;;;;;4855909;29;20040;-91
2022/11/14 01:10:32;;;;;;;12.45;7.57;;;3.70;99.90;;;;;;4856353;29;20073;-91
2022/11/14 01:13:17;;;;;;;13.32;7.35;;;3.60;99.90;;;;;;4857845;29;20049;-92
2022/11/14 01:16:02;;;;;;;16.35;8.52;;;3.60;99.90;;;;;;4870526;29;20555;-91
2022/11/14 01:18:46;;;;;;;15.50;7.97;;;3.60;99.90;;;;;;4852304;29;20069;-92
2022/11/14 01:21:30;;;;;;;11.35;6.65;;;3.60;99.90;;;;;;4856057;29;20121;-92
2022/11/14 01:24:15;;;;;;;13.82;7.55;;;3.60;99.90;;;;;;4856341;29;20057;-91
2022/11/14 01:26:59;;;;;;;13.82;7.93;;;3.70;99.90;;;;;;4859119;29;20040;-92
2022/11/14 01:29:43;;;;;;;16.05;8.70;;;3.60;99.90;;;;;;4859984;29;20041;-91
2022/11/14 01:32:27;;;;;;;14.05;7.75;;;3.50;99.90;;;;;;4856098;29;20448;-91
2022/11/14 01:35:11;;;;;;;14.02;8.07;;;3.30;99.90;;;;;;4858266;29;20046;-91
2022/11/14 01:37:55;;;;;;;14.32;7.82;;;3.40;99.90;;;;;;4859686;29;20112;-91
2022/11/14 01:40:44;;;;;;;16.23;8.60;;;3.30;99.90;;;;;;4857441;29;20109;-92
2022/11/14 01:43:31;;;;;;;16.73;8.57;;;3.30;99.90;;;;;;4855886;29;20053;-91
2022/11/14 01:46:22;;;;;;;16.23;8.43;;;3.30;99.90;;;;;;4857458;29;20113;-92
2022/11/14 01:49:23;;;;;;;14.27;7.53;;;3.20;99.90;;;;;;4854962;29;20080;-92
2022/11/14 01:52:18;;;;;;;16.33;8.50;;;3.10;99.90;;;;;;4871211;29;20132;-91
2022/11/14 01:55:06;;;;;;;13.80;7.30;;;3.20;99.90;;;;;;4864319;29;20066;-91
2022/11/14 01:57:51;;;;;;;13.85;7.70;;;3.30;99.90;;;;;;4858921;29;20097;-91
2022/11/14 02:00:35;;;;;;;15.18;7.32;;;3.20;99.90;;;;;;4857954;29;20107;-91
2022/11/14 02:03:20;;;;;;;12.93;7.50;;;3.30;99.90;;;;;;4855810;29;20075;-91
2022/11/14 02:06:07;;;;;;;17.00;7.95;;;3.30;99.90;;;;;;4856765;29;20117;-91
2022/11/14 02:08:52;;;;;;;15.05;8.20;;;3.30;99.90;;;;;;4858083;29;20108;-91
2022/11/14 02:11:43;;;;;;;12.88;7.35;;;3.30;99.90;;;;;;4871926;29;20044;-91
2022/11/14 02:14:28;;;;;;;13.20;7.45;;;3.30;99.90;;;;;;4868316;29;20068;-90
2022/11/14 02:17:14;;;;;;;16.40;9.38;;;3.30;99.90;;;;;;4855727;29;20086;-91
2022/11/14 02:20:11;;;;;;;17.95;10.35;;;3.30;99.90;;;;;;4864012;29;20044;-92
2022/11/14 02:22:55;;;;;;;18.40;9.88;;;3.30;99.90;;;;;;4868959;29;20048;-92
2022/11/14 02:25:40;;;;;;;14.60;9.07;;;3.10;99.90;;;;;;4855853;29;20033;-91
2022/11/14 02:28:24;;;;;;;16.77;9.20;;;3.20;99.90;;;;;;4858924;29;20051;-92
2022/11/14 02:31:09;;;;;;;15.10;8.48;;;3.10;99.90;;;;;;4857221;29;20172;-91
2022/11/14 02:33:53;;;;;;;17.38;8.20;;;3.10;99.90;;;;;;4856720;29;20064;-92
2022/11/14 02:36:37;;;;;;;16.10;9.23;;;3.10;99.90;;;;;;4854666;29;20044;-91
2022/11/14 02:39:21;;;;;;;16.95;9.38;;;3.10;99.90;;;;;;4858455;29;20086;-91
2022/11/14 02:42:05;;;;;;;15.75;8.35;;;3.00;99.90;;;;;;4856769;29;20137;-91
2022/11/14 02:44:49;;;;;;;17.42;9.77;;;2.90;99.90;;;;;;4866460;29;20140;-91
2022/11/14 02:47:34;;;;;;;18.13;9.70;;;2.80;99.90;;;;;;4871676;29;20558;-91
2022/11/14 02:50:18;;;;;;;14.77;7.60;;;2.70;99.90;;;;;;4854519;29;20061;-92
2022/11/14 02:53:02;;;;;;;17.92;9.35;;;2.80;99.90;;;;;;4855305;29;20037;-92
2022/11/14 02:55:46;;;;;;;19.55;9.70;;;2.70;99.90;;;;;;4856215;29;20052;-91
2022/11/14 02:58:30;;;;;;;16.10;8.60;;;2.70;99.90;;;;;;4856581;29;20190;-92
2022/11/14 03:01:14;;;;;;;17.95;9.43;;;2.60;99.90;;;;;;4853826;29;20410;-91
2022/11/14 03:03:58;;;;;;;14.68;8.02;;;2.60;99.90;;;;;;4858749;29;20052;-91
2022/11/14 03:06:42;;;;;;;15.85;7.60;;;2.60;99.90;;;;;;4859435;29;20080;-91
2022/11/14 03:09:26;;;;;;;16.80;8.30;;;2.50;99.90;;;;;;4865440;29;20089;-91
2022/11/14 03:12:11;;;;;;;16.10;9.50;;;2.50;99.90;;;;;;4859982;29;20094;-91
2022/11/14 03:14:55;;;;;;;17.02;8.77;;;2.50;99.90;;;;;;4872039;29;20064;-91
2022/11/14 03:17:39;;;;;;;16.23;8.32;;;2.50;99.90;;;;;;4861366;29;20101;-91
2022/11/14 03:20:23;;;;;;;17.90;9.07;;;2.50;99.90;;;;;;4855100;29;20149;-90
2022/11/14 03:23:07;;;;;;;17.73;8.73;;;2.50;99.90;;;;;;4873239;29;20053;-91
2022/11/14 03:25:51;;;;;;;16.08;8.30;;;2.40;99.90;;;;;;4859880;29;20093;-91
2022/11/14 03:28:36;;;;;;;14.75;8.13;;;2.40;99.90;;;;;;4862261;29;20049;-91
2022/11/14 03:31:20;;;;;;;15.00;7.47;;;2.30;99.90;;;;;;4860993;29;20044;-91
2022/11/14 03:34:05;;;;;;;14.35;7.45;;;2.30;99.90;;;;;;4860926;29;20045;-91
2022/11/14 03:36:49;;;;;;;16.20;8.48;;;2.30;99.90;;;;;;4860833;29;20044;-91
2022/11/14 03:39:33;;;;;;;16.38;8.10;;;2.30;99.90;;;;;;4861671;29;20098;-91
2022/11/14 03:42:17;;;;;;;18.85;8.82;;;2.30;99.90;;;;;;4861082;29;20068;-91
2022/11/14 03:45:01;;;;;;;15.55;8.60;;;2.30;99.90;;;;;;4860245;29;20037;-91
2022/11/14 03:47:45;;;;;;;16.15;8.00;;;2.30;99.90;;;;;;4859252;29;20113;-91
2022/11/14 03:50:29;;;;;;;16.00;8.23;;;2.30;99.90;;;;;;4857084;29;20044;-91
2022/11/14 03:53:13;;;;;;;15.98;8.13;;;2.20;99.90;;;;;;4857561;29;20122;-91
2022/11/14 03:55:57;;;;;;;16.05;8.48;;;2.20;99.90;;;;;;4861999;29;20049;-91
2022/11/14 03:58:41;;;;;;;16.38;7.43;;;2.20;99.90;;;;;;4860202;29;20052;-91
2022/11/14 04:01:27;;;;;;;16.52;7.97;;;2.10;99.90;;;;;;4860392;29;20505;-91
2022/11/14 04:04:11;;;;;;;14.20;7.47;;;2.10;99.90;;;;;;4856821;29;20064;-90
2022/11/14 04:06:55;;;;;;;16.00;8.07;;;2.10;99.90;;;;;;4857901;29;20052;-91
2022/11/14 04:09:40;;;;;;;15.70;7.13;;;2.10;99.90;;;;;;4862376;29;20037;-91
2022/11/14 04:12:24;;;;;;;15.07;7.60;;;2.10;99.90;;;;;;4860095;29;20041;-91
2022/11/14 04:15:09;;;;;;;12.52;7.45;;;2.10;99.90;;;;;;4856913;29;20041;-91
2022/11/14 04:17:53;;;;;;;13.57;6.97;;;2.10;99.90;;;;;;4860503;29;20075;-91
2022/11/14 04:20:37;;;;;;;15.25;7.40;;;2.10;99.90;;;;;;4859784;29;20040;-90
2022/11/14 04:23:21;;;;;;;14.23;7.57;;;2.10;99.90;;;;;;4854530;29;20249;-90
2022/11/14 04:26:05;;;;;;;14.60;6.55;;;2.10;99.90;;;;;;4861469;29;20094;-91
2022/11/14 04:28:49;;;;;;;15.32;7.20;;;2.10;99.90;;;;;;4861555;29;20090;-91
2022/11/14 04:31:33;;;;;;;13.63;7.07;;;2.10;99.90;;;;;;4860664;29;20045;-90
2022/11/14 04:34:17;;;;;;;13.20;7.25;;;2.00;99.90;;;;;;4857724;29;20121;-91
2022/11/14 04:37:01;;;;;;;15.98;8.07;;;2.00;99.90;;;;;;4858379;29;20100;-91
2022/11/14 04:39:45;;;;;;;17.10;7.18;;;2.00;99.90;;;;;;4854716;29;20060;-91
2022/11/14 04:42:29;;;;;;;16.20;7.80;;;1.90;99.90;;;;;;4858369;29;20062;-91
2022/11/14 04:45:13;;;;;;;15.75;7.70;;;1.80;99.90;;;;;;4859372;29;20044;-91
2022/11/14 04:47:58;;;;;;;14.60;7.32;;;1.80;99.90;;;;;;4859558;29;20520;-91
2022/11/14 04:50:45;;;;;;;13.57;7.10;;;1.90;99.90;;;;;;4852690;29;20066;-91
2022/11/14 04:53:29;;;;;;;16.35;8.15;;;1.80;99.90;;;;;;4857325;29;20036;-90
2022/11/14 04:56:13;;;;;;;14.27;6.43;;;1.70;99.90;;;;;;4859499;29;20124;-91
2022/11/14 04:58:57;;;;;;;16.90;7.85;;;1.70;99.90;;;;;;4857219;29;20052;-90
2022/11/14 05:01:41;;;;;;;15.93;7.72;;;1.70;99.90;;;;;;4857498;29;20047;-90
2022/11/14 05:04:25;;;;;;;15.57;7.43;;;1.60;99.90;;;;;;4857786;29;20052;-90
2022/11/14 05:07:09;;;;;;;14.30;7.65;;;1.60;99.90;;;;;;4859024;29;20077;-90
2022/11/14 05:09:53;;;;;;;15.60;7.18;;;1.60;99.90;;;;;;4857477;29;20505;-90
2022/11/14 05:12:37;;;;;;;14.55;6.88;;;1.60;99.90;;;;;;4856227;29;20072;-90
2022/11/14 05:15:21;;;;;;;13.50;6.13;;;1.70;99.90;;;;;;4857088;29;20048;-90
2022/11/14 05:18:05;;;;;;;13.88;6.88;;;1.70;99.90;;;;;;4860200;29;20120;-90
2022/11/14 05:20:49;;;;;;;14.73;6.93;;;1.60;99.90;;;;;;4856438;29;20032;-90
2022/11/14 05:23:33;;;;;;;12.40;6.88;;;1.60;99.90;;;;;;4857283;29;20044;-90
2022/11/14 05:26:18;;;;;;;13.38;7.13;;;1.60;99.90;;;;;;4856719;29;20117;-90
2022/11/14 05:29:04;;;;;;;14.15;6.80;;;1.60;99.90;;;;;;4859546;29;20044;-90
2022/11/14 05:31:48;;;;;;;15.77;7.28;;;1.60;99.90;;;;;;4869404;29;20066;-90
2022/11/14 05:34:32;;;;;;;15.85;6.18;;;1.50;99.90;;;;;;4853877;29;20125;-89
2022/11/14 05:37:16;;;;;;;16.08;7.10;;;1.60;99.90;;;;;;4859191;29;20044;-90
2022/11/14 05:40:00;;;;;;;14.70;6.85;;;1.50;99.90;;;;;;4856424;29;20410;-90
2022/11/14 05:42:45;;;;;;;12.57;6.22;;;1.50;99.90;;;;;;4856899;29;20498;-91
2022/11/14 05:45:29;;;;;;;11.75;5.75;;;1.50;99.90;;;;;;4854740;29;20095;-90
2022/11/14 05:48:13;;;;;;;13.15;5.93;;;1.50;99.90;;;;;;4865172;29;20517;-90
2022/11/14 05:50:59;;;;;;;13.40;6.70;;;1.50;99.90;;;;;;4864434;29;20052;-89
2022/11/14 05:53:43;;;;;;;13.75;6.25;;;1.60;99.90;;;;;;4857245;29;20044;-89
2022/11/14 05:56:27;;;;;;;15.02;6.80;;;1.60;99.90;;;;;;4856734;29;20155;-90
2022/11/14 05:59:11;;;;;;;13.45;6.78;;;1.60;99.90;;;;;;4850593;29;20107;-91
2022/11/14 06:01:56;;;;;;;12.98;5.85;;;1.70;99.90;;;;;;4859228;29;20076;-90
2022/11/14 06:04:40;;;;;;;12.82;5.53;;;1.70;99.90;;;;;;4851710;29;20097;-90
2022/11/14 06:07:24;;;;;;;12.70;5.90;;;1.60;99.90;;;;;;4853580;29;20044;-90
2022/11/14 06:10:09;;;;;;;12.50;5.45;;;1.70;99.90;;;;;;4856448;29;20048;-89
2022/11/14 06:12:53;;;;;;;11.48;5.35;;;1.70;99.90;;;;;;4852464;29;20064;-89
2022/11/14 06:15:37;;;;;;;12.90;5.88;;;1.80;99.90;;;;;;4853754;29;21887;-90
2022/11/14 06:18:21;;;;;;;11.55;5.55;;;1.70;99.90;;;;;;4857192;29;20040;-90
2022/11/14 06:21:07;;;;;;;12.80;5.30;;;1.70;99.90;;;;;;4853798;29;20093;-90
2022/11/14 06:23:51;;;;;;;12.27;5.05;;;1.80;99.90;;;;;;4855535;29;20056;-90
2022/11/14 06:26:35;;;;;;;9.75;4.75;;;1.70;99.90;;;;;;4853655;29;20100;-91
2022/11/14 06:29:19;;;;;;;12.40;5.65;;;1.80;99.90;;;;;;4863868;29;20402;-90
2022/11/14 06:32:04;;;;;;;10.80;4.78;;;1.80;99.90;;;;;;4819336;29;20044;-90
2022/11/14 06:34:48;;;;;;;10.30;4.90;;;1.80;99.90;;;;;;4858429;29;20044;-90
2022/11/14 06:37:36;;;;;;;12.50;6.03;;;1.80;99.90;;;;;;4854111;29;20070;-90
2022/11/14 06:40:20;;;;;;;10.18;5.13;;;1.90;99.90;;;;;;4852044;29;20040;-92
2022/11/14 06:43:04;;;;;;;9.90;4.82;;;1.90;99.90;;;;;;4867099;29;20052;-90
2022/11/14 06:45:52;;;;;;;11.98;5.35;;;1.80;99.90;;;;;;4857619;29;20121;-91
2022/11/14 06:48:36;;;;;;;13.30;5.47;;;1.80;99.90;;;;;;4856960;29;20044;-91
2022/11/14 06:51:21;;;;;;;11.00;5.30;;;1.90;99.90;;;;;;4857330;29;20143;-92
2022/11/14 06:54:05;;;;;;;10.00;4.63;;;1.80;99.90;;;;;;4855307;29;20037;-91
2022/11/14 06:56:49;;;;;;;10.45;4.63;;;1.90;99.90;;;;;;4852826;29;20124;-91
2022/11/14 06:59:33;;;;;;;11.10;5.32;;;2.00;99.90;;;;;;4854616;29;20048;-92
2022/11/14 07:02:19;;;;;;;10.23;4.50;;;2.00;99.90;;;;;;4865953;29;20053;-92
2022/11/14 07:05:03;;;;;;;11.95;5.55;;;1.90;99.90;;;;;;4853460;29;20086;-92
2022/11/14 07:07:49;;;;;;;12.63;5.60;;;2.00;99.90;;;;;;4869310;29;20090;-92
2022/11/14 07:10:33;;;;;;;10.82;5.93;;;2.00;99.90;;;;;;4857377;29;20079;-92
2022/11/14 07:13:18;;;;;;;12.65;5.80;;;2.00;99.90;;;;;;4868344;29;20049;-93
2022/11/14 07:16:03;;;;;;;12.35;5.78;;;2.10;99.90;;;;;;4857407;29;20068;-94
2022/11/14 07:18:48;;;;;;;12.30;6.13;;;2.10;99.90;;;;;;4857794;29;20043;-93
2022/11/14 07:21:33;;;;;;;11.80;5.03;;;2.10;99.90;;;;;;4856991;29;20033;-93
2022/11/14 07:24:17;;;;;;;10.18;5.35;;;2.10;99.90;;;;;;4851960;29;20065;-93
2022/11/14 07:27:07;;;;;;;12.90;6.00;;;2.10;99.90;;;;;;4859688;29;20064;-94
2022/11/14 07:29:51;;;;;;;10.90;5.57;;;2.10;99.90;;;;;;4835616;29;20178;-94
2022/11/14 07:32:36;;;;;;;10.95;5.65;;;2.20;99.90;;;;;;4852297;29;20104;-93
2022/11/14 07:35:20;;;;;;;10.63;4.35;;;2.20;99.90;;;;;;4856036;29;20049;-93
2022/11/14 07:38:04;;;;;;;11.88;5.47;;;2.20;99.90;;;;;;4856582;29;20558;-94
2022/11/14 07:40:56;;;;;;;10.80;4.60;;;2.20;99.90;;;;;;4857891;29;20066;-94
2022/11/14 07:43:41;;;;;;;8.55;4.25;;;2.20;99.90;;;;;;4868359;29;20060;-94
2022/11/14 07:46:25;;;;;;;11.82;5.30;;;2.20;99.90;;;;;;4865966;29;20166;-92
2022/11/14 07:49:09;;;;;;;10.50;4.97;;;2.20;99.90;;;;;;4853657;29;20041;-93
2022/11/14 07:51:53;;;;;;;11.63;4.97;;;2.20;99.90;;;;;;4868722;29;20089;-92
2022/11/14 07:54:38;;;;;;;11.30;4.72;;;2.30;99.90;;;;;;4854433;29;20033;-92
2022/11/14 07:57:22;;;;;;;11.80;5.38;;;2.40;99.90;;;;;;4857634;29;20094;-92
2022/11/14 08:00:06;;;;;;;11.45;5.53;;;2.40;99.90;;;;;;4854451;29;20547;-93
2022/11/14 08:02:51;;;;;;;10.85;5.10;;;2.40;99.90;;;;;;4859939;29;20084;-93
2022/11/14 08:05:36;;;;;;;11.15;5.47;;;2.40;99.90;;;;;;4857137;29;20471;-93
2022/11/14 08:08:20;;;;;;;11.15;5.05;;;2.50;99.90;;;;;;4868788;29;20048;-94
2022/11/14 08:11:04;;;;;;;12.55;6.30;;;2.50;99.90;;;;;;4853030;29;20425;-93
2022/11/14 08:13:49;;;;;;;13.40;5.90;;;2.50;99.90;;;;;;4868745;29;20056;-93
2022/11/14 08:16:36;;;;;;;10.55;5.45;;;2.50;99.90;;;;;;4855217;29;20062;-93
2022/11/14 08:19:21;;;;;;;9.95;5.47;;;2.60;99.90;;;;;;4855151;29;20067;-94
2022/11/14 08:22:06;;;;;;;12.52;5.85;;;2.70;99.90;;;;;;4865458;29;20036;-93
2022/11/14 08:24:51;;;;;;;11.38;5.95;;;2.70;99.90;;;;;;4867004;29;20081;-95
2022/11/14 08:27:35;;;;;;;11.52;5.13;;;2.80;99.90;;;;;;4865991;29;20070;-93
2022/11/14 08:30:20;;;;;;;11.63;5.30;;;2.80;99.90;;;;;;4854897;29;20048;-94
2022/11/14 08:33:06;;;;;;;11.70;5.43;;;3.00;99.90;;;;;;4854491;29;20122;-94
2022/11/14 08:35:50;;;;;;;10.27;5.50;;;3.00;99.90;;;;;;4857612;29;20045;-93
2022/11/14 08:38:34;;;;;;;10.75;5.43;;;3.20;99.90;;;;;;4858048;29;20895;-94
2022/11/14 08:41:19;;;;;;;11.55;5.63;;;3.30;99.90;;;;;;4857204;29;20150;-93
2022/11/14 08:44:03;;;;;;;13.13;6.00;;;3.40;99.90;;;;;;4867210;29;20059;-95
2022/11/14 08:46:49;;;;;;;11.20;6.00;;;3.50;99.90;;;;;;4854380;29;20055;-94
2022/11/14 08:49:33;;;;;;;12.45;6.22;;;3.60;99.90;;;;;;4851961;29;20544;-94
2022/11/14 08:52:17;;;;;;;14.75;7.90;;;3.70;99.90;;;;;;4855306;29;20047;-95
2022/11/14 08:55:01;;;;;;;13.20;6.30;;;3.80;99.90;;;;;;4854350;29;20040;-95
2022/11/14 08:57:46;;;;;;;14.18;6.88;;;3.90;99.90;;;;;;4855952;29;20179;-94
2022/11/14 09:00:30;;;;;;;11.75;6.05;;;4.00;99.90;;;;;;4856825;29;20049;-95
2022/11/14 09:03:14;;;;;;;11.73;5.88;;;4.10;99.90;;;;;;4854475;29;20048;-94
2022/11/14 09:06:00;;;;;;;12.90;6.32;;;4.20;99.90;;;;;;4856642;29;20125;-93
2022/11/14 09:08:44;;;;;;;13.07;6.20;;;4.40;99.90;;;;;;4869110;29;20511;-95
2022/11/14 09:11:29;;;;;;;11.98;6.05;;;4.50;99.90;;;;;;4866855;29;20029;-95
2022/11/14 09:14:13;;;;;;;16.05;8.73;;;4.70;99.90;;;;;;4855718;29;20045;-95
2022/11/14 09:16:57;;;;;;;18.38;8.55;;;4.90;99.90;;;;;;4856487;29;20045;-94
2022/11/14 09:19:41;;;;;;;13.95;7.32;;;4.90;99.90;;;;;;4865987;29;20193;-95
2022/11/14 09:22:26;;;;;;;12.35;6.55;;;5.00;99.90;;;;;;4865153;29;20048;-94
2022/11/14 09:25:10;;;;;;;11.90;6.60;;;5.10;99.90;;;;;;4853758;29;20051;-95
2022/11/14 09:27:54;;;;;;;12.75;6.65;;;5.20;99.90;;;;;;4853325;29;20084;-94
2022/11/14 09:30:40;;;;;;;11.88;6.38;;;5.30;99.90;;;;;;4853657;29;20455;-94
2022/11/14 09:33:24;;;;;;;13.32;6.53;;;5.40;99.90;;;;;;4852705;29;20105;-95
2022/11/14 09:36:14;;;;;;;13.40;6.85;;;5.60;99.90;;;;;;4850715;29;20077;-94
2022/11/14 09:38:58;;;;;;;;;;;5.70;99.90;;;;;;4866449;29;20093;-95
2022/11/14 09:42:15;;;;;;;11.00;5.20;;;5.80;99.90;;;;;;4861493;29;19975;-95
2022/11/14 09:45:02;;;;;;;11.40;5.70;;;6.00;99.90;;;;;;4849943;29;20125;-94
2022/11/14 09:48:05;;;;;;;11.07;6.07;;;6.10;99.90;;;;;;4852401;29;20129;-95
2022/11/14 09:51:06;;;;;;;10.13;5.45;;;6.20;99.90;;;;;;4867390;29;20053;-95
2022/11/14 09:54:08;;;;;;;9.80;5.65;;;6.40;99.90;;;;;;4852242;29;20117;-94
2022/11/14 09:56:53;;;;;;;11.23;6.97;;;6.50;99.90;;;;;;4850892;29;20037;-93
2022/11/14 09:59:37;;;;;;;12.70;6.97;;;6.70;99.90;;;;;;4852156;29;20121;-94
2022/11/14 10:02:53;;;;;;;12.15;6.63;;;6.80;99.90;;;;;;4855702;29;20040;-95
2022/11/14 10:06:17;;;;;;;13.13;8.25;;;6.90;99.90;;;;;;4868738;29;20049;-94
2022/11/14 10:09:24;;;;;;;11.80;7.72;;;7.20;99.90;;;;;;4867109;29;20048;-95
2022/11/14 10:12:20;;;;;;;12.65;7.85;;;7.20;99.90;;;;;;4847697;29;20164;-94
2022/11/14 10:15:17;;;;;;;16.73;9.75;;;7.40;99.90;;;;;;4854862;29;20032;-94
2022/11/14 10:18:25;;;;;;;12.85;8.85;;;7.50;99.90;;;;;;4850506;29;20105;-94
2022/11/14 10:21:47;;;;;;;13.20;7.80;;;7.60;99.90;;;;;;4855992;29;20455;-93
2022/11/14 10:24:40;;;;;;;11.93;7.15;;;7.50;99.90;;;;;;4867074;29;20105;-93
2022/11/14 10:27:34;;;;;;;12.10;7.20;;;7.70;99.90;;;;;;4852780;29;20190;-91
2022/11/14 10:30:22;;;;;;;14.80;8.65;;;7.80;99.90;;;;;;4852767;29;20045;-92
2022/11/14 10:33:20;;;;;;;13.95;8.18;;;7.90;99.90;;;;;;4865215;29;20060;-92
2022/11/14 10:36:42;;;;;;;13.10;8.32;;;7.90;99.90;;;;;;4864667;29;20129;-90
2022/11/14 10:39:46;;;;;;;12.30;6.88;;;8.00;99.90;;;;;;4852536;29;20085;-90
2022/11/14 10:42:38;;;;;;;13.32;9.07;;;8.10;99.90;;;;;;4840736;29;20059;-92
2022/11/14 10:45:31;;;;;;;13.93;8.10;;;8.20;99.90;;;;;;4853912;29;20045;-93
2022/11/14 10:48:27;;;;;;;13.73;8.90;;;8.30;99.90;;;;;;4854406;29;20547;-91
2022/11/14 10:51:23;;;;;;;12.75;8.70;;;8.30;99.90;;;;;;4850623;29;20098;-92
2022/11/14 10:54:23;;;;;;;9.98;6.60;;;8.40;99.90;;;;;;4865615;29;20079;-91
2022/11/14 10:57:19;;;;;;;14.77;8.00;;;8.50;99.90;;;;;;4856506;29;20109;-91
2022/11/14 11:00:30;;;;;;;13.13;8.15;;;8.50;99.90;;;;;;4846890;29;20415;-90
2022/11/14 11:03:15;;;;;;;16.95;9.95;;;8.50;99.90;;;;;;4850049;29;20061;-92
2022/11/14 11:05:59;;;;;;;21.17;13.10;;;8.60;99.90;;;;;;4847204;29;20566;-90
2022/11/14 11:11:57;;;;;;;18.80;12.32;;;8.50;99.90;;;;;;4856406;29;20123;-94
2022/11/14 11:14:46;;;;;;;20.35;13.23;;;8.70;99.90;;;;;;4849609;29;20077;-94
2022/11/14 11:17:30;;;;;;;20.38;12.93;;;8.80;99.90;;;;;;4867152;29;20717;-89
2022/11/14 11:20:33;;;;;;;21.98;13.93;;;8.60;99.90;;;;;;4854963;29;20047;-88
2022/11/14 11:23:21;;;;;;;24.52;15.32;;;8.60;99.90;;;;;;4852926;29;20472;-89
2022/11/14 11:26:15;;;;;;;23.35;15.48;;;8.50;99.90;;;;;;4854181;29;20032;-90
2022/11/14 11:29:08;;;;;;;21.92;15.20;;;8.50;99.90;;;;;;4870229;29;20185;-93
2022/11/14 11:31:55;;;;;;;23.60;16.52;;;8.40;99.90;;;;;;4862970;29;20044;-90
2022/11/14 11:34:39;;;;;;;23.48;15.02;;;8.40;99.90;;;;;;4852420;29;20044;-93
2022/11/14 11:37:31;;;;;;;26.70;17.95;;;8.50;99.90;;;;;;4858860;29;20035;-90
2022/11/14 11:40:20;;;;;;;24.95;16.13;;;8.40;99.90;;;;;;4857394;29;20074;-88
2022/11/14 11:43:33;;;;;;;21.73;14.98;;;8.40;99.90;;;;;;4858599;29;20121;-93
2022/11/14 11:46:28;;;;;;;18.17;13.23;;;8.50;99.90;;;;;;4858421;29;20068;-94
2022/11/14 11:49:37;;;;;;;21.70;14.57;;;8.50;99.90;;;;;;4854279;29;20052;-93
2022/11/14 11:52:54;;;;;;;18.15;12.10;;;8.50;99.90;;;;;;4858469;29;20037;-89
2022/11/14 11:55:52;;;;;;;15.90;10.18;;;8.50;99.90;;;;;;4872567;29;20064;-90
2022/11/14 11:58:48;;;;;;;16.15;11.05;;;8.50;99.90;;;;;;4859208;29;20036;-91
2022/11/14 12:01:32;;;;;;;20.50;13.95;;;8.40;99.90;;;;;;4858286;29;20048;-94
2022/11/14 12:04:16;;;;;;;20.95;14.60;;;8.40;99.90;;;;;;4857914;29;20052;-87
2022/11/14 12:07:18;;;;;;;20.58;13.80;;;8.30;99.90;;;;;;4857565;29;20204;-93
2022/11/14 12:10:12;;;;;;;18.77;12.93;;;8.30;99.90;;;;;;4870096;29;20059;-96
2022/11/14 12:13:09;;;;;;;18.63;12.30;;;8.30;99.90;;;;;;4858475;29;20123;-92
2022/11/14 12:16:26;;;;;;;23.83;14.77;;;8.40;99.90;;;;;;4855490;29;20057;-87
2022/11/14 12:19:32;;;;;;;21.17;14.18;;;8.40;99.90;;;;;;4853851;29;20513;-88
2022/11/14 12:22:54;;;;;;;20.23;13.70;;;8.40;99.90;;;;;;4865500;29;20056;-89
2022/11/14 12:25:38;;;;;;;21.30;15.13;;;8.40;99.90;;;;;;4868955;29;20086;-88
2022/11/14 12:28:37;;;;;;;19.98;13.15;;;8.30;99.90;;;;;;4868194;29;20113;-91
2022/11/14 12:31:22;;;;;;;20.90;13.83;;;8.30;99.90;;;;;;4867933;29;20040;-90
2022/11/14 12:34:19;;;;;;;15.48;10.48;;;8.20;99.90;;;;;;4857945;29;20346;-88
2022/11/14 12:37:09;;;;;;;16.58;10.13;;;8.30;99.90;;;;;;4855039;29;20054;-92
2022/11/14 12:40:18;;;;;;;15.52;10.57;;;8.30;99.90;;;;;;4858177;29;20063;-92
2022/11/14 12:43:05;;;;;;;13.80;9.55;;;8.40;99.90;;;;;;4853710;29;20064;-94
2022/11/14 12:45:52;;;;;;;14.02;9.35;;;8.40;99.90;;;;;;4857025;29;20043;-94
2022/11/14 12:48:44;;;;;;;14.30;9.40;;;8.50;99.90;;;;;;4855894;29;20040;-93
2022/11/14 12:51:48;;;;;;;12.88;9.55;;;8.50;99.90;;;;;;4853538;29;20041;-93
2022/11/14 12:54:47;;;;;;;11.57;8.82;;;8.40;99.90;;;;;;4855266;29;20500;-89
2022/11/14 12:57:51;;;;;;;9.20;7.00;;;8.40;99.90;;;;;;4850964;29;20509;-90
2022/11/14 13:01:15;;;;;;;8.70;6.15;;;8.30;99.90;;;;;;4853165;29;20077;-92
2022/11/14 13:04:33;;;;;;;9.57;5.68;;;8.40;99.90;;;;;;4853021;29;20073;-94
2022/11/14 13:07:28;;;;;;;6.97;4.50;;;8.40;99.90;;;;;;4868324;29;20040;-88
2022/11/14 13:10:14;;;;;;;10.13;6.38;;;8.40;99.90;;;;;;4867042;29;20044;-93
2022/11/14 13:22:39;;;;;;;5.55;3.65;;;8.20;99.90;;;;;;4855546;29;20136;-88
2022/11/14 13:25:24;;;;;;;8.70;5.82;;;8.20;99.90;;;;;;4855858;29;20158;-89
2022/11/14 13:28:47;;;;;;;9.13;6.15;;;8.20;99.90;;;;;;4855207;29;20037;-90
2022/11/14 13:31:34;;;;;;;7.72;4.75;;;8.20;99.90;;;;;;4853494;29;20040;-93
2022/11/14 13:34:31;;;;;;;9.52;6.47;;;8.20;99.90;;;;;;4852747;29;20426;-90
2022/11/14 13:37:32;;;;;;;9.40;6.97;;;8.20;99.90;;;;;;4852727;29;20031;-92
2022/11/14 13:40:38;;;;;;;10.30;6.97;;;8.10;99.90;;;;;;4854609;29;20040;-93
2022/11/14 13:43:41;;;;;;;10.95;8.02;;;8.10;99.90;;;;;;4855700;29;20132;-88
2022/11/14 13:46:47;;;;;;;12.27;8.30;;;8.10;99.90;;;;;;4854994;29;20406;-91
2022/11/14 13:49:52;;;;;;;10.68;7.20;;;8.00;99.90;;;;;;4854065;29;20040;-87
2022/11/14 13:52:47;;;;;;;10.10;6.68;;;8.00;99.90;;;;;;4865964;29;20177;-92
2022/11/14 13:55:36;;;;;;;10.57;6.32;;;8.10;99.90;;;;;;4839807;29;20139;-91
2022/11/14 13:58:56;;;;;;;9.05;6.68;;;8.10;99.90;;;;;;4853692;29;20056;-93
2022/11/14 14:02:03;;;;;;;9.65;6.35;;;8.10;99.90;;;;;;4864527;29;20394;-88
2022/11/14 14:05:14;;;;;;;7.78;5.57;;;8.10;99.90;;;;;;4855888;29;20105;-90
2022/11/14 14:08:09;;;;;;;9.70;6.25;;;8.00;99.90;;;;;;4867830;29;20044;-91
2022/11/14 14:11:02;;;;;;;10.52;7.03;;;8.00;99.90;;;;;;4854612;29;20090;-94
2022/11/14 14:14:23;;;;;;;10.88;6.30;;;8.00;99.90;;;;;;4852955;29;20101;-89
2022/11/14 14:17:20;;;;;;;9.52;6.07;;;8.00;99.90;;;;;;4852718;29;20099;-92
2022/11/14 14:20:33;;;;;;;9.95;6.28;;;8.00;99.90;;;;;;4855576;29;20040;-87
2022/11/14 14:23:26;;;;;;;7.57;5.15;;;8.00;99.90;;;;;;4854363;29;20476;-90
2022/11/14 14:26:34;;;;;;;7.15;4.72;;;8.00;99.90;;;;;;4853201;29;20467;-90
2022/11/14 14:29:46;;;;;;;7.07;4.60;;;8.10;99.90;;;;;;4864841;29;20113;-96
2022/11/14 14:32:30;;;;;;;7.07;4.25;;;8.00;99.90;;;;;;4853570;29;20121;-92
2022/11/14 14:35:26;;;;;;;5.35;3.53;;;8.10;99.90;;;;;;4854439;29;20141;-93
2022/11/14 14:38:13;;;;;;;8.93;5.28;;;8.10;99.90;;;;;;4852107;29;20105;-93
2022/11/14 14:40:57;;;;;;;7.03;5.10;;;8.10;99.90;;;;;;4850546;29;20482;-93
2022/11/14 14:43:48;;;;;;;8.05;5.15;;;8.10;99.90;;;;;;4860751;29;20064;-93
2022/11/14 14:46:33;;;;;;;6.75;4.75;;;8.10;99.90;;;;;;4852977;29;20028;-94
2022/11/14 14:49:28;;;;;;;6.15;4.57;;;8.10;99.90;;;;;;4859793;29;20545;-91
2022/11/14 14:52:20;;;;;;;9.60;5.32;;;8.10;99.90;;;;;;4851266;29;20092;-91
2022/11/14 14:55:16;;;;;;;6.35;4.47;;;8.10;99.90;;;;;;4863466;29;20146;-92